Time;durP1;ratioP1;P1;durP2;ratioP2;P2;SDS_P1;SDS_P2;PMS_P1;PMS_P2;Temp;Humidity;BMP_temperature;BMP_pressure;BME280_temperature;BME280_humidity;BME280_pressure;Samples;Min_cycle;Max_cycle;Signal;HPM_P1;HPM_P2
2022/08/01 00:01:36;;;;;;;1.00;0.90;;;19.90;99.90;;;;;;5116170;28;20510;-84
2022/08/01 00:04:04;;;;;;;1.27;1.17;;;20.00;99.90;;;;;;5113913;28;20482;-83
2022/08/01 00:06:33;;;;;;;1.00;1.00;;;20.10;99.90;;;;;;5119161;28;20465;-83
2022/08/01 00:09:00;;;;;;;1.00;0.90;;;20.10;99.90;;;;;;5115572;28;20464;-83
2022/08/01 00:11:27;;;;;;;0.73;0.73;;;20.10;99.90;;;;;;5113987;28;20472;-84
2022/08/01 00:13:54;;;;;;;1.10;1.00;;;20.00;99.90;;;;;;5113259;28;20464;-84
2022/08/01 00:16:23;;;;;;;1.63;1.00;;;20.00;99.90;;;;;;5114325;27;20490;-83
2022/08/01 00:18:50;;;;;;;1.13;1.00;;;19.90;99.90;;;;;;5117386;27;20451;-83
2022/08/01 00:21:17;;;;;;;0.80;0.80;;;19.90;99.90;;;;;;5117099;27;20488;-83
2022/08/01 00:23:46;;;;;;;1.10;1.00;;;19.90;99.90;;;;;;5116732;27;20480;-84
2022/08/01 00:26:13;;;;;;;0.80;0.80;;;19.90;99.90;;;;;;5113007;27;20489;-83
2022/08/01 00:28:40;;;;;;;1.20;0.90;;;19.90;99.90;;;;;;5120183;27;20475;-83
2022/08/01 00:31:08;;;;;;;1.23;1.00;;;19.90;99.90;;;;;;5113552;27;20461;-83
2022/08/01 00:33:35;;;;;;;0.87;0.80;;;19.80;99.90;;;;;;5114834;27;20820;-84
2022/08/01 00:36:02;;;;;;;1.43;1.33;;;19.70;99.90;;;;;;5116480;27;20457;-84
2022/08/01 00:38:29;;;;;;;1.90;0.87;;;19.70;99.90;;;;;;5113609;27;20463;-84
2022/08/01 00:40:58;;;;;;;0.97;0.87;;;19.70;99.90;;;;;;5114487;27;20465;-83
2022/08/01 00:43:25;;;;;;;0.70;0.70;;;19.70;99.90;;;;;;5110759;27;20498;-83
2022/08/01 00:45:52;;;;;;;0.70;0.70;;;19.70;99.90;;;;;;5113277;27;20511;-83
2022/08/01 00:48:19;;;;;;;0.93;0.83;;;19.70;99.90;;;;;;5110078;27;20453;-83
2022/08/01 00:50:46;;;;;;;1.07;0.97;;;19.60;99.90;;;;;;5116610;27;20457;-83
2022/08/01 00:53:13;;;;;;;0.80;0.80;;;19.60;99.90;;;;;;5114622;27;20946;-83
2022/08/01 00:55:40;;;;;;;1.20;0.77;;;19.60;99.90;;;;;;5117193;27;20449;-83
2022/08/01 00:58:09;;;;;;;1.27;1.17;;;19.50;99.90;;;;;;5116574;27;20479;-83
2022/08/01 01:00:37;;;;;;;1.90;1.00;;;19.40;99.90;;;;;;5118061;27;20816;-83
2022/08/01 01:03:04;;;;;;;1.20;1.00;;;19.40;99.90;;;;;;5115187;27;20498;-83
2022/08/01 01:05:37;;;;;;;0.70;0.67;;;19.30;99.90;;;;;;5117263;27;20496;-83
2022/08/01 01:08:08;;;;;;;1.83;1.13;;;19.20;99.90;;;;;;5112869;27;20464;-84
2022/08/01 01:10:44;;;;;;;1.83;0.90;;;19.20;99.90;;;;;;5115888;27;20464;-83
2022/08/01 01:13:18;;;;;;;1.03;0.97;;;19.10;99.90;;;;;;5111119;27;20467;-84
2022/08/01 01:15:50;;;;;;;0.97;0.97;;;19.10;99.90;;;;;;5119632;27;20437;-83
2022/08/01 01:18:24;;;;;;;1.43;1.00;;;19.10;99.90;;;;;;5119282;27;20929;-83
2022/08/01 01:20:58;;;;;;;2.60;1.00;;;19.10;99.90;;;;;;5114267;27;20447;-83
2022/08/01 01:23:51;;;;;;;3.13;2.00;;;19.10;99.90;;;;;;5114414;27;20972;-83
2022/08/01 01:26:44;;;;;;;0.80;0.80;;;19.10;99.90;;;;;;5108257;27;20459;-83
2022/08/01 01:29:18;;;;;;;1.53;1.10;;;19.10;99.90;;;;;;5108824;27;20466;-84
2022/08/01 01:31:50;;;;;;;1.50;1.40;;;19.10;99.90;;;;;;5112882;27;20467;-83
2022/08/01 01:34:20;;;;;;;3.43;2.00;;;19.20;99.90;;;;;;5116411;27;21004;-84
2022/08/01 01:36:49;;;;;;;1.33;1.23;;;19.20;99.90;;;;;;5113400;27;20462;-83
2022/08/01 01:39:17;;;;;;;1.27;1.17;;;19.20;99.90;;;;;;5116769;27;20771;-83
2022/08/01 01:41:46;;;;;;;1.23;0.80;;;19.20;99.90;;;;;;5113557;27;20465;-84
2022/08/01 01:44:16;;;;;;;0.90;0.90;;;19.20;99.90;;;;;;5111437;27;21179;-84
2022/08/01 01:46:43;;;;;;;1.10;1.10;;;19.20;99.90;;;;;;5109990;27;20914;-84
2022/08/01 01:49:11;;;;;;;1.37;1.27;;;19.20;99.90;;;;;;5114189;27;20936;-83
2022/08/01 01:51:41;;;;;;;0.90;0.90;;;19.10;99.90;;;;;;5113748;27;20468;-83
2022/08/01 01:54:10;;;;;;;0.90;0.90;;;19.10;99.90;;;;;;5111963;27;20458;-83
2022/08/01 01:56:48;;;;;;;1.30;1.20;;;19.10;99.90;;;;;;5114442;27;20464;-83
2022/08/01 01:59:19;;;;;;;1.63;1.30;;;19.10;99.90;;;;;;5111731;27;20540;-84
2022/08/01 02:01:50;;;;;;;1.23;1.20;;;19.00;99.90;;;;;;5115012;27;20523;-84
2022/08/01 02:04:18;;;;;;;1.30;1.00;;;18.90;99.90;;;;;;5111974;27;21132;-84
2022/08/01 02:06:47;;;;;;;1.03;1.03;;;18.90;99.90;;;;;;5112403;27;21148;-84
2022/08/01 02:09:16;;;;;;;2.50;1.00;;;18.90;99.90;;;;;;5112296;27;20517;-84
2022/08/01 02:11:45;;;;;;;0.97;0.90;;;18.90;99.90;;;;;;5113749;27;20464;-84
2022/08/01 02:14:13;;;;;;;0.83;0.70;;;18.90;99.90;;;;;;5114864;27;20923;-83
2022/08/01 02:16:45;;;;;;;1.63;1.53;;;18.80;99.90;;;;;;5110696;27;20960;-83
2022/08/01 02:19:12;;;;;;;0.67;0.60;;;18.80;99.90;;;;;;5110105;27;20462;-84
2022/08/01 02:21:45;;;;;;;2.30;1.23;;;18.90;99.90;;;;;;5113602;27;20458;-83
2022/08/01 02:24:15;;;;;;;1.53;1.03;;;18.80;99.90;;;;;;5111625;27;20491;-84
2022/08/01 02:26:48;;;;;;;1.10;1.03;;;18.90;99.90;;;;;;5111868;27;20805;-84
2022/08/01 02:29:22;;;;;;;1.17;0.90;;;18.90;99.90;;;;;;5112357;27;20472;-83
2022/08/01 02:31:54;;;;;;;6.60;1.53;;;18.90;99.90;;;;;;5114023;27;20466;-84
2022/08/01 02:34:23;;;;;;;2.13;1.30;;;18.80;99.90;;;;;;5111742;27;21026;-83
2022/08/01 02:36:52;;;;;;;1.23;1.10;;;18.70;99.90;;;;;;5112614;27;21170;-83
2022/08/01 02:39:22;;;;;;;1.80;1.17;;;18.70;99.90;;;;;;5114102;27;20438;-83
2022/08/01 02:41:55;;;;;;;1.00;0.90;;;18.60;99.90;;;;;;5112983;27;20486;-83
2022/08/01 02:44:28;;;;;;;1.27;1.17;;;18.60;99.90;;;;;;5110429;27;20495;-83
2022/08/01 02:47:02;;;;;;;1.17;0.87;;;18.60;99.90;;;;;;5116153;27;20476;-84
2022/08/01 02:49:32;;;;;;;1.27;1.13;;;18.60;99.90;;;;;;5112966;27;20962;-83
2022/08/01 02:52:02;;;;;;;0.73;0.73;;;18.60;99.90;;;;;;5111038;27;20551;-83
2022/08/01 02:54:32;;;;;;;1.10;1.00;;;18.50;99.90;;;;;;5105784;27;20495;-83
2022/08/01 02:57:01;;;;;;;7.47;1.30;;;18.50;99.90;;;;;;5110918;27;20476;-83
2022/08/01 02:59:29;;;;;;;1.47;1.37;;;18.50;99.90;;;;;;5104574;27;20535;-83
2022/08/01 03:02:00;;;;;;;1.20;1.00;;;18.40;99.90;;;;;;5113410;27;20493;-83
2022/08/01 03:04:28;;;;;;;1.57;1.00;;;18.40;99.90;;;;;;5111645;27;21028;-84
2022/08/01 03:06:58;;;;;;;1.07;0.97;;;18.50;99.90;;;;;;5115549;27;20468;-83
2022/08/01 03:09:27;;;;;;;1.23;0.80;;;18.40;99.90;;;;;;5114245;27;20833;-83
2022/08/01 03:11:59;;;;;;;0.90;0.90;;;18.40;99.90;;;;;;5112779;27;20476;-83
2022/08/01 03:14:27;;;;;;;1.23;1.07;;;18.40;99.90;;;;;;5113876;27;21083;-83
2022/08/01 03:16:57;;;;;;;3.17;0.90;;;18.50;99.90;;;;;;5109923;27;20469;-83
2022/08/01 03:19:27;;;;;;;0.80;0.80;;;18.60;99.90;;;;;;5115551;27;20460;-83
2022/08/01 03:21:58;;;;;;;0.77;0.77;;;18.60;99.90;;;;;;5110317;27;20488;-83
2022/08/01 03:24:28;;;;;;;0.73;0.73;;;18.70;99.90;;;;;;5114724;27;20495;-83
2022/08/01 03:26:58;;;;;;;0.80;0.77;;;18.70;99.90;;;;;;5112377;27;20830;-84
2022/08/01 03:29:28;;;;;;;1.03;0.80;;;18.60;99.90;;;;;;5113632;27;20524;-83
2022/08/01 03:31:55;;;;;;;1.20;1.10;;;18.60;99.90;;;;;;5112550;27;20473;-84
2022/08/01 03:34:24;;;;;;;1.00;1.00;;;18.60;99.90;;;;;;5111134;27;20542;-83
2022/08/01 03:36:57;;;;;;;0.67;0.60;;;18.60;99.90;;;;;;5113551;27;20471;-83
2022/08/01 03:39:29;;;;;;;0.70;0.70;;;18.60;99.90;;;;;;5114967;27;20460;-83
2022/08/01 03:42:01;;;;;;;3.47;1.53;;;18.60;99.90;;;;;;5116555;28;21107;-83
2022/08/01 03:44:32;;;;;;;1.13;1.03;;;18.60;99.90;;;;;;5114186;27;20496;-83
2022/08/01 03:47:02;;;;;;;1.20;0.83;;;18.50;99.90;;;;;;5113731;28;20469;-83
2022/08/01 03:49:33;;;;;;;0.90;0.80;;;18.60;99.90;;;;;;5113432;28;20468;-83
2022/08/01 03:52:03;;;;;;;1.10;0.93;;;18.70;99.90;;;;;;5115764;28;20528;-83
2022/08/01 03:54:33;;;;;;;1.00;0.87;;;18.70;99.90;;;;;;5110947;28;20463;-83
2022/08/01 03:57:01;;;;;;;0.77;0.77;;;18.70;99.90;;;;;;5108955;28;20626;-83
2022/08/01 03:59:29;;;;;;;0.77;0.77;;;18.70;99.90;;;;;;5110678;28;20463;-83
2022/08/01 04:01:57;;;;;;;0.87;0.87;;;18.60;99.90;;;;;;5110246;28;20468;-83
2022/08/01 04:04:25;;;;;;;1.37;0.83;;;18.60;99.90;;;;;;5109536;28;20463;-83
2022/08/01 04:06:54;;;;;;;1.03;0.90;;;18.60;99.90;;;;;;5111771;28;20530;-83
2022/08/01 04:09:21;;;;;;;0.80;0.80;;;18.80;99.90;;;;;;5110094;28;20463;-83
2022/08/01 04:11:48;;;;;;;0.90;0.80;;;18.70;99.90;;;;;;5113414;28;20870;-84
2022/08/01 04:14:16;;;;;;;2.20;0.80;;;18.70;99.90;;;;;;5112906;28;20459;-83
2022/08/01 04:16:43;;;;;;;1.20;0.87;;;18.70;99.90;;;;;;5109073;28;20480;-84
2022/08/01 04:19:10;;;;;;;1.53;0.80;;;18.70;99.90;;;;;;5105946;28;20601;-83
2022/08/01 04:21:37;;;;;;;1.03;1.00;;;18.70;99.90;;;;;;5110062;28;21021;-83
2022/08/01 04:24:11;;;;;;;0.60;0.60;;;18.70;99.90;;;;;;5113212;28;20457;-83
2022/08/01 04:26:40;;;;;;;1.30;1.20;;;18.80;99.90;;;;;;5111137;28;20843;-83
2022/08/01 04:29:09;;;;;;;0.90;0.90;;;18.80;99.90;;;;;;5114742;28;20460;-83
2022/08/01 04:31:38;;;;;;;1.70;0.70;;;18.80;99.90;;;;;;5112561;28;20855;-83
2022/08/01 04:34:07;;;;;;;1.27;1.17;;;18.80;99.90;;;;;;5113156;28;20473;-83
2022/08/01 04:36:37;;;;;;;3.70;0.97;;;18.80;99.90;;;;;;5111753;28;20936;-83
2022/08/01 04:39:07;;;;;;;2.63;1.20;;;18.80;99.90;;;;;;5116073;28;20459;-83
2022/08/01 04:41:36;;;;;;;1.30;0.90;;;18.90;99.90;;;;;;5110075;28;20530;-83
2022/08/01 04:44:03;;;;;;;0.80;0.70;;;18.80;99.90;;;;;;5110563;28;20923;-83
2022/08/01 04:46:32;;;;;;;3.80;1.37;;;18.80;99.90;;;;;;5109571;28;20487;-84
2022/08/01 04:49:00;;;;;;;1.00;0.90;;;18.70;99.90;;;;;;5113190;28;20881;-84
2022/08/01 04:51:27;;;;;;;1.80;0.70;;;18.80;99.90;;;;;;5109848;28;20519;-83
2022/08/01 04:53:54;;;;;;;0.97;0.97;;;18.90;99.90;;;;;;5113347;28;20471;-83
2022/08/01 04:56:22;;;;;;;0.70;0.70;;;18.90;99.90;;;;;;5111674;28;20520;-83
2022/08/01 04:59:39;;;;;;;1.10;1.00;;;18.90;99.90;;;;;;5104591;28;20759;-83
2022/08/01 05:01:37;;;;;;;2.00;0.70;;;18.90;99.90;;;;;;5112418;27;20459;-83
2022/08/01 05:04:04;;;;;;;0.70;0.70;;;19.00;99.90;;;;;;5113230;27;20515;-82
2022/08/01 05:06:31;;;;;;;1.00;0.90;;;19.20;99.90;;;;;;5114207;27;20481;-83
2022/08/01 05:08:58;;;;;;;1.13;1.00;;;19.30;99.90;;;;;;5116335;27;20952;-82
2022/08/01 05:11:26;;;;;;;0.80;0.80;;;19.50;99.90;;;;;;5112453;27;20525;-82
2022/08/01 05:13:53;;;;;;;1.10;1.00;;;19.60;99.90;;;;;;5113486;27;20492;-83
2022/08/01 05:16:20;;;;;;;0.80;0.77;;;19.90;99.90;;;;;;5115527;27;21029;-83
2022/08/01 05:18:47;;;;;;;0.73;0.73;;;19.90;99.90;;;;;;5116001;27;20442;-83
2022/08/01 05:21:14;;;;;;;1.03;0.93;;;19.90;99.90;;;;;;5110674;27;20968;-83
2022/08/01 05:23:42;;;;;;;2.00;0.80;;;20.10;99.90;;;;;;5110401;27;20469;-83
2022/08/01 05:26:09;;;;;;;1.27;1.00;;;20.10;99.90;;;;;;5108747;27;20504;-82
2022/08/01 05:28:37;;;;;;;0.87;0.87;;;20.20;99.90;;;;;;5113992;27;20461;-83
2022/08/01 05:31:05;;;;;;;1.93;1.03;;;20.40;99.90;;;;;;5112669;27;20469;-82
2022/08/01 05:33:32;;;;;;;1.53;0.80;;;20.50;99.90;;;;;;5113188;27;20456;-83
2022/08/01 05:35:59;;;;;;;0.80;0.70;;;20.60;99.90;;;;;;5114154;27;20491;-83
2022/08/01 05:38:26;;;;;;;1.30;1.20;;;20.70;99.90;;;;;;5107325;27;21194;-83
2022/08/01 05:40:53;;;;;;;1.57;0.80;;;20.70;99.90;;;;;;5114200;27;20962;-83
2022/08/01 05:43:20;;;;;;;0.80;0.80;;;20.80;99.90;;;;;;5109539;27;20495;-83
2022/08/01 05:45:48;;;;;;;0.70;0.70;;;20.80;99.90;;;;;;5113268;27;20484;-83
2022/08/01 05:48:15;;;;;;;1.17;1.03;;;20.80;99.90;;;;;;5112877;27;20988;-83
2022/08/01 05:50:42;;;;;;;1.60;0.97;;;20.90;99.90;;;;;;5110831;27;20496;-83
2022/08/01 05:53:10;;;;;;;0.80;0.80;;;21.10;99.90;;;;;;5110211;27;20539;-83
2022/08/01 05:55:37;;;;;;;0.73;0.73;;;21.10;99.90;;;;;;5115616;27;20461;-83
2022/08/01 05:58:04;;;;;;;1.23;1.13;;;21.10;99.90;;;;;;5115657;27;20460;-83
2022/08/01 06:00:31;;;;;;;0.77;0.77;;;21.20;99.90;;;;;;5113937;27;20460;-82
2022/08/01 06:03:00;;;;;;;1.87;1.00;;;21.20;99.90;;;;;;5113877;27;20548;-83
2022/08/01 06:05:27;;;;;;;1.10;1.07;;;21.10;99.90;;;;;;5113033;27;21185;-83
2022/08/01 06:07:54;;;;;;;1.17;0.90;;;21.20;99.90;;;;;;5114960;27;20466;-84
2022/08/01 06:10:21;;;;;;;7.03;1.37;;;21.20;99.90;;;;;;5115096;27;20472;-83
2022/08/01 06:12:48;;;;;;;1.67;1.23;;;21.20;99.90;;;;;;5113438;27;20932;-83
2022/08/01 06:15:15;;;;;;;0.70;0.70;;;21.20;99.90;;;;;;5107703;27;21136;-83
2022/08/01 06:17:42;;;;;;;1.23;1.13;;;21.20;99.90;;;;;;5106825;27;20533;-83
2022/08/01 06:20:12;;;;;;;1.33;0.83;;;21.40;99.90;;;;;;5110375;27;20518;-83
2022/08/01 06:22:39;;;;;;;1.20;1.10;;;21.40;99.90;;;;;;5106347;27;21138;-83
2022/08/01 06:25:08;;;;;;;0.83;0.83;;;21.60;99.90;;;;;;5106832;27;20571;-83
2022/08/01 06:27:36;;;;;;;0.90;0.90;;;21.70;99.90;;;;;;5108052;27;20462;-82
2022/08/01 06:30:03;;;;;;;5.20;2.43;;;21.80;99.90;;;;;;5110895;27;20464;-82
2022/08/01 06:32:30;;;;;;;0.90;0.80;;;21.70;99.90;;;;;;5110161;27;20468;-83
2022/08/01 06:34:58;;;;;;;0.90;0.77;;;21.80;99.70;;;;;;5109650;27;20909;-83
2022/08/01 06:37:30;;;;;;;1.67;1.00;;;21.90;99.30;;;;;;5106968;27;20457;-83
2022/08/01 06:39:57;;;;;;;0.80;0.80;;;22.10;99.40;;;;;;5109249;27;20461;-83
2022/08/01 06:42:24;;;;;;;0.70;0.70;;;22.10;98.90;;;;;;5111214;27;20454;-84
2022/08/01 06:44:51;;;;;;;0.80;0.80;;;22.20;98.50;;;;;;5112329;27;20511;-83
2022/08/01 06:47:18;;;;;;;1.40;0.70;;;22.20;98.70;;;;;;5114409;27;20489;-83
2022/08/01 06:49:45;;;;;;;0.93;0.83;;;22.30;98.60;;;;;;5113335;27;20473;-83
2022/08/01 06:52:12;;;;;;;1.70;0.90;;;22.30;98.30;;;;;;5111699;27;20491;-83
2022/08/01 06:54:41;;;;;;;1.00;0.83;;;22.30;98.20;;;;;;5113102;27;20825;-83
2022/08/01 06:57:08;;;;;;;0.80;0.80;;;22.40;98.40;;;;;;5116022;27;20437;-83
2022/08/01 06:59:35;;;;;;;0.83;0.80;;;22.30;98.10;;;;;;5111779;27;20464;-83
2022/08/01 07:02:02;;;;;;;1.47;0.63;;;22.40;97.60;;;;;;5106387;27;21071;-83
2022/08/01 07:04:29;;;;;;;0.87;0.70;;;22.50;97.70;;;;;;5109318;27;20468;-83
2022/08/01 07:06:56;;;;;;;0.83;0.83;;;22.70;97.50;;;;;;5112631;27;20500;-83
2022/08/01 07:09:23;;;;;;;0.90;0.80;;;22.80;97.40;;;;;;5110972;27;20492;-83
2022/08/01 07:11:52;;;;;;;0.87;0.87;;;22.90;96.80;;;;;;5105099;27;20465;-83
2022/08/01 07:14:19;;;;;;;0.70;0.70;;;23.10;97.20;;;;;;5113625;27;20545;-83
2022/08/01 07:16:47;;;;;;;1.00;0.80;;;23.30;96.60;;;;;;5113921;27;20882;-83
2022/08/01 07:19:14;;;;;;;0.93;0.87;;;23.60;96.30;;;;;;5122895;27;20828;-83
2022/08/01 07:21:41;;;;;;;3.07;1.70;;;23.80;96.70;;;;;;5117778;27;20458;-83
2022/08/01 07:24:10;;;;;;;1.60;1.10;;;23.80;95.60;;;;;;5107844;27;20469;-83
2022/08/01 07:26:38;;;;;;;0.80;0.60;;;24.00;95.80;;;;;;5106191;27;20474;-83
2022/08/01 07:29:06;;;;;;;2.10;0.90;;;24.00;95.60;;;;;;5109341;27;20457;-83
2022/08/01 07:31:33;;;;;;;2.43;1.00;;;24.10;95.00;;;;;;5113183;27;20984;-83
2022/08/01 07:34:00;;;;;;;0.87;0.70;;;24.10;95.30;;;;;;5113059;27;20461;-83
2022/08/01 07:36:27;;;;;;;0.83;0.80;;;24.00;94.40;;;;;;5112159;27;20454;-83
2022/08/01 07:38:54;;;;;;;1.50;1.40;;;23.80;94.90;;;;;;5105591;28;20467;-83
2022/08/01 07:41:21;;;;;;;0.70;0.70;;;23.70;95.00;;;;;;5106110;27;20466;-83
2022/08/01 07:43:50;;;;;;;0.80;0.80;;;23.60;94.60;;;;;;5107242;27;20560;-83
2022/08/01 07:46:18;;;;;;;1.00;0.90;;;23.50;94.40;;;;;;5103116;28;20482;-83
2022/08/01 07:48:45;;;;;;;3.17;1.00;;;23.30;95.90;;;;;;5101697;28;20473;-83
2022/08/01 07:51:12;;;;;;;0.80;0.80;;;23.30;96.20;;;;;;5109951;28;20462;-83
2022/08/01 07:53:39;;;;;;;1.10;0.80;;;23.40;96.30;;;;;;5106695;28;20984;-83
2022/08/01 07:56:06;;;;;;;1.00;1.00;;;23.50;96.10;;;;;;5110963;28;20452;-83
2022/08/01 07:58:34;;;;;;;1.20;1.10;;;23.60;95.40;;;;;;5105840;28;20472;-83
2022/08/01 08:01:01;;;;;;;0.80;0.77;;;23.60;94.60;;;;;;5106125;28;20461;-83
2022/08/01 08:03:29;;;;;;;0.80;0.80;;;23.50;95.00;;;;;;5109074;28;20465;-83
2022/08/01 08:05:57;;;;;;;1.00;0.73;;;23.40;94.40;;;;;;5109192;28;20559;-84
2022/08/01 08:08:24;;;;;;;0.60;0.60;;;23.40;94.80;;;;;;5103374;28;20472;-84
2022/08/01 08:10:51;;;;;;;0.90;0.90;;;23.40;95.70;;;;;;5105424;28;20510;-83
2022/08/01 08:13:18;;;;;;;1.17;1.07;;;23.50;94.90;;;;;;5112206;28;20540;-83
2022/08/01 08:15:45;;;;;;;0.83;0.83;;;23.60;95.20;;;;;;5107425;28;20465;-83
2022/08/01 08:18:12;;;;;;;0.70;0.70;;;23.60;94.30;;;;;;5107152;28;20488;-83
2022/08/01 08:20:40;;;;;;;2.23;0.97;;;23.70;94.80;;;;;;5104185;28;20469;-83
2022/08/01 08:25:48;;;;;;;1.00;0.90;;;24.20;94.00;;;;;;5110454;28;21004;-83
2022/08/01 08:28:16;;;;;;;1.90;0.97;;;24.50;94.80;;;;;;5109436;28;20513;-83
2022/08/01 08:30:43;;;;;;;0.90;0.90;;;24.50;94.10;;;;;;5110862;28;20514;-83
2022/08/01 08:33:10;;;;;;;0.80;0.80;;;24.20;93.40;;;;;;5118205;28;20461;-84
2022/08/01 08:35:39;;;;;;;0.80;0.80;;;24.30;93.30;;;;;;5107230;27;20530;-84
2022/08/01 08:38:07;;;;;;;1.33;0.70;;;24.50;94.30;;;;;;5115859;27;20456;-84
2022/08/01 08:40:37;;;;;;;1.97;1.10;;;24.40;93.40;;;;;;5109699;27;20450;-84
2022/08/01 08:43:06;;;;;;;1.13;0.93;;;24.50;94.10;;;;;;5117558;27;20465;-83
2022/08/01 08:45:33;;;;;;;0.80;0.80;;;24.50;93.80;;;;;;5106560;27;20461;-84
2022/08/01 08:48:01;;;;;;;0.87;0.87;;;24.80;94.70;;;;;;5121131;27;20553;-84
2022/08/01 08:50:28;;;;;;;1.60;1.50;;;24.90;92.80;;;;;;5114225;27;20452;-84
2022/08/01 08:52:56;;;;;;;1.00;0.90;;;24.90;91.80;;;;;;5121806;27;20437;-83
2022/08/01 08:55:25;;;;;;;1.20;1.10;;;24.90;92.60;;;;;;5114062;27;20849;-83
2022/08/01 08:57:53;;;;;;;1.00;0.90;;;25.20;93.00;;;;;;5116457;27;20976;-84
2022/08/01 09:00:20;;;;;;;1.10;1.00;;;25.20;91.80;;;;;;5109089;27;20446;-83
2022/08/01 09:02:50;;;;;;;2.03;1.93;;;25.20;91.30;;;;;;5113257;27;20445;-84
2022/08/01 09:05:18;;;;;;;1.50;1.23;;;25.10;91.90;;;;;;5110278;27;20453;-84
2022/08/01 09:07:45;;;;;;;1.23;0.83;;;25.00;92.10;;;;;;5113432;27;20569;-83
2022/08/01 09:10:12;;;;;;;0.90;0.90;;;24.90;92.50;;;;;;5113986;27;20545;-84
2022/08/01 09:13:01;;;;;;;3.73;1.10;;;24.90;92.30;;;;;;5116015;27;20985;-84
2022/08/01 09:15:39;;;;;;;0.93;0.80;;;25.00;92.70;;;;;;5113364;27;20442;-84
2022/08/01 09:18:06;;;;;;;1.00;1.00;;;25.20;92.30;;;;;;5113202;27;20832;-84
2022/08/01 09:20:35;;;;;;;0.97;0.93;;;25.00;92.10;;;;;;5116584;27;20508;-84
2022/08/01 09:23:03;;;;;;;1.10;1.00;;;25.00;91.70;;;;;;5111344;27;20442;-84
2022/08/01 09:25:33;;;;;;;1.87;1.77;;;25.10;92.00;;;;;;5118215;27;20571;-83
2022/08/01 09:28:06;;;;;;;1.13;1.03;;;25.30;92.00;;;;;;5113749;27;20550;-85
2022/08/01 09:30:39;;;;;;;1.00;0.90;;;25.50;91.70;;;;;;5117803;27;20454;-84
2022/08/01 09:33:06;;;;;;;1.43;1.20;;;25.70;90.80;;;;;;5110912;27;20468;-84
2022/08/01 09:35:36;;;;;;;2.03;1.83;;;25.90;91.60;;;;;;5112445;27;20484;-84
2022/08/01 09:38:15;;;;;;;1.63;0.90;;;26.70;91.10;;;;;;5116557;27;20457;-84
2022/08/01 09:40:50;;;;;;;0.97;0.90;;;26.60;88.30;;;;;;5105429;28;20466;-84
2022/08/01 09:43:30;;;;;;;1.50;1.00;;;26.10;88.90;;;;;;5097173;27;20454;-86
2022/08/01 09:45:58;;;;;;;1.20;1.10;;;25.50;88.90;;;;;;5122725;27;20440;-88
2022/08/01 09:48:28;;;;;;;1.10;1.00;;;25.40;90.60;;;;;;5113244;27;20491;-85
2022/08/01 09:51:01;;;;;;;1.10;0.93;;;25.50;91.30;;;;;;5115960;27;20529;-86
2022/08/01 09:53:45;;;;;;;1.03;0.93;;;25.60;91.10;;;;;;5106299;28;20563;-87
2022/08/01 09:56:13;;;;;;;0.80;0.77;;;25.90;92.20;;;;;;5110196;27;20540;-87
2022/08/01 09:59:00;;;;;;;1.30;1.20;;;26.20;92.60;;;;;;5114426;27;20980;-87
2022/08/01 10:01:27;;;;;;;1.03;1.03;;;26.60;93.00;;;;;;5113480;27;20468;-86
2022/08/01 10:04:06;;;;;;;1.17;1.07;;;26.50;90.50;;;;;;5128120;27;20450;-86
2022/08/01 10:06:33;;;;;;;1.17;0.90;;;26.50;90.70;;;;;;5105363;27;20497;-86
2022/08/01 10:09:00;;;;;;;0.90;0.90;;;26.30;90.20;;;;;;5118208;27;20908;-86
2022/08/01 10:11:29;;;;;;;0.80;0.80;;;26.40;91.60;;;;;;5109019;27;20466;-86
2022/08/01 10:13:59;;;;;;;0.90;0.90;;;26.50;89.40;;;;;;5106653;28;20461;-86
2022/08/01 10:16:29;;;;;;;1.20;1.20;;;26.60;88.30;;;;;;5106203;27;20526;-86
2022/08/01 10:18:57;;;;;;;0.87;0.80;;;26.70;90.20;;;;;;5109357;27;20470;-86
2022/08/01 10:21:27;;;;;;;1.53;1.43;;;26.80;88.30;;;;;;5105990;27;20465;-85
2022/08/01 10:23:56;;;;;;;2.10;1.13;;;26.60;86.90;;;;;;5109353;27;20827;-85
2022/08/01 10:26:27;;;;;;;1.00;1.00;;;26.70;88.90;;;;;;5115151;27;20529;-85
2022/08/01 10:28:56;;;;;;;1.00;0.90;;;27.00;88.40;;;;;;5114290;27;20461;-85
2022/08/01 10:31:24;;;;;;;0.90;0.90;;;27.00;87.40;;;;;;5112401;27;21160;-85
2022/08/01 10:33:51;;;;;;;1.57;1.20;;;27.10;89.10;;;;;;5113494;27;20821;-85
2022/08/01 10:36:21;;;;;;;2.87;1.40;;;27.10;87.50;;;;;;5105625;27;20472;-86
2022/08/01 10:38:48;;;;;;;0.97;0.93;;;27.20;85.80;;;;;;5106000;27;20492;-86
2022/08/01 10:41:25;;;;;;;1.40;1.00;;;27.10;84.70;;;;;;5111459;27;20791;-86
2022/08/01 10:43:53;;;;;;;1.30;1.20;;;26.70;84.20;;;;;;5114053;27;20472;-85
2022/08/01 10:46:21;;;;;;;1.30;1.17;;;26.60;82.50;;;;;;5112976;27;20460;-85
2022/08/01 10:48:56;;;;;;;1.40;0.97;;;26.70;82.30;;;;;;5114121;27;20461;-85
2022/08/01 10:51:24;;;;;;;1.47;1.27;;;26.90;83.10;;;;;;5109300;27;20464;-85
2022/08/01 10:53:52;;;;;;;0.80;0.80;;;26.90;84.20;;;;;;5115144;27;20464;-85
2022/08/01 10:56:20;;;;;;;1.30;1.20;;;27.20;84.60;;;;;;5113018;27;20464;-86
2022/08/01 10:58:48;;;;;;;0.90;0.90;;;27.40;84.30;;;;;;5107789;27;20458;-85
2022/08/01 11:01:22;;;;;;;2.30;1.43;;;27.10;81.80;;;;;;5114150;27;20471;-85
2022/08/01 11:04:15;;;;;;;1.10;1.00;;;27.50;84.60;;;;;;5108368;27;20462;-85
2022/08/01 11:06:54;;;;;;;0.90;0.90;;;27.60;82.00;;;;;;5102379;27;20541;-86
2022/08/01 11:09:28;;;;;;;2.97;1.03;;;27.60;84.00;;;;;;5122315;27;20551;-85
2022/08/01 11:12:00;;;;;;;0.80;0.80;;;27.70;83.20;;;;;;5113823;27;20488;-85
2022/08/01 11:14:27;;;;;;;0.83;0.83;;;27.50;81.80;;;;;;5113088;27;20453;-85
2022/08/01 11:16:54;;;;;;;2.07;1.33;;;27.50;83.90;;;;;;5108709;27;20458;-85
2022/08/01 11:19:24;;;;;;;0.83;0.80;;;27.50;81.50;;;;;;5108373;27;20531;-85
2022/08/01 11:22:03;;;;;;;1.40;1.20;;;26.80;79.60;;;;;;5107574;27;20470;-85
2022/08/01 11:25:01;;;;;;;1.23;1.13;;;27.10;83.90;;;;;;5107415;27;20512;-85
2022/08/01 11:27:30;;;;;;;1.53;1.27;;;27.90;83.60;;;;;;5025845;28;20661;-85
2022/08/01 11:30:22;;;;;;;1.10;1.00;;;28.00;78.90;;;;;;5095854;27;20457;-85
2022/08/01 11:32:52;;;;;;;2.30;0.97;;;28.10;78.80;;;;;;5111920;27;20441;-85
2022/08/01 11:35:23;;;;;;;1.13;0.90;;;28.50;76.70;;;;;;5115558;27;20827;-86
2022/08/01 11:37:52;;;;;;;1.37;1.27;;;28.60;78.70;;;;;;5110244;27;20904;-85
2022/08/01 11:40:21;;;;;;;3.33;1.53;;;28.80;73.70;;;;;;5113938;27;20932;-85
2022/08/01 11:42:48;;;;;;;1.80;0.80;;;29.00;74.20;;;;;;5103430;28;20458;-85
2022/08/01 11:45:16;;;;;;;0.90;0.90;;;29.10;72.30;;;;;;5108746;28;20438;-86
2022/08/01 11:47:48;;;;;;;3.73;1.47;;;29.10;72.30;;;;;;5112807;27;20565;-86
2022/08/01 11:50:32;;;;;;;0.80;0.80;;;29.40;70.70;;;;;;5120719;27;20457;-85
2022/08/01 11:53:00;;;;;;;0.70;0.70;;;29.50;73.30;;;;;;5103606;28;20470;-85
2022/08/01 11:55:28;;;;;;;0.70;0.70;;;29.60;71.20;;;;;;5102937;28;20948;-85
2022/08/01 11:58:01;;;;;;;0.80;0.80;;;29.50;70.30;;;;;;5110490;28;20442;-85
2022/08/01 12:00:30;;;;;;;0.70;0.70;;;29.30;68.20;;;;;;5104938;28;20450;-86
2022/08/01 12:03:02;;;;;;;0.80;0.80;;;29.30;71.40;;;;;;5122430;28;20471;-86
2022/08/01 12:05:30;;;;;;;0.80;0.77;;;29.50;66.30;;;;;;5114741;28;20485;-85
2022/08/01 12:07:59;;;;;;;1.10;0.90;;;28.80;66.30;;;;;;5115022;28;20504;-86
2022/08/01 12:10:28;;;;;;;1.13;0.70;;;28.30;69.70;;;;;;5124407;27;20581;-86
2022/08/01 12:13:01;;;;;;;0.87;0.80;;;28.10;70.70;;;;;;5116183;27;20470;-87
2022/08/01 12:15:31;;;;;;;0.80;0.80;;;28.40;71.40;;;;;;5108163;27;20457;-85
2022/08/01 12:18:00;;;;;;;2.03;0.80;;;28.60;69.60;;;;;;5125892;27;20449;-85
2022/08/01 12:20:29;;;;;;;0.70;0.63;;;28.20;71.70;;;;;;5114958;27;20465;-86
2022/08/01 12:22:56;;;;;;;1.47;0.80;;;27.80;71.20;;;;;;5115850;27;20442;-85
2022/08/01 12:25:26;;;;;;;0.60;0.60;;;27.50;73.30;;;;;;5121670;27;20473;-85
2022/08/01 12:27:53;;;;;;;1.47;1.07;;;27.60;72.30;;;;;;5107198;27;20513;-85
2022/08/01 12:30:23;;;;;;;0.90;0.70;;;28.20;72.40;;;;;;5128220;27;20453;-84
2022/08/01 12:32:51;;;;;;;1.03;1.00;;;28.40;66.70;;;;;;5121431;27;20537;-85
2022/08/01 12:35:22;;;;;;;0.80;0.70;;;28.50;68.40;;;;;;5117784;27;20811;-86
2022/08/01 12:37:51;;;;;;;1.00;1.00;;;28.50;66.50;;;;;;5114077;27;20442;-86
2022/08/01 12:40:20;;;;;;;0.97;0.93;;;28.20;64.60;;;;;;5124762;27;20453;-86
2022/08/01 12:42:51;;;;;;;0.70;0.60;;;27.70;68.10;;;;;;5127953;27;20904;-86
2022/08/01 12:45:21;;;;;;;0.87;0.87;;;27.50;69.90;;;;;;5112513;27;20459;-87
2022/08/01 12:47:49;;;;;;;1.83;0.93;;;27.10;69.80;;;;;;5117410;27;20882;-86
2022/08/01 12:50:19;;;;;;;1.57;0.67;;;27.10;71.10;;;;;;5116530;27;20464;-85
2022/08/01 12:52:46;;;;;;;1.00;0.70;;;27.00;74.10;;;;;;5107260;28;20437;-86
2022/08/01 12:55:17;;;;;;;0.80;0.80;;;26.80;73.00;;;;;;5107796;28;20627;-86
2022/08/01 12:57:49;;;;;;;1.33;0.70;;;26.70;74.80;;;;;;5107178;27;20518;-86
2022/08/01 13:00:21;;;;;;;0.90;0.80;;;26.60;76.30;;;;;;5108417;27;21154;-86
2022/08/01 13:02:50;;;;;;;0.70;0.70;;;26.60;75.30;;;;;;5114364;27;20799;-85